sensor_id;sensor_type;location;lat;lon;timestamp;pressure;altitude;pressure_sealevel;temperature;humidity
967;BME280;56108;48.730;9.304;2024-02-28T00:01:15;97477.47;;;6.41;100.00
967;BME280;56108;48.730;9.304;2024-02-28T00:03:23;97480.72;;;6.30;100.00
967;BME280;56108;48.730;9.304;2024-02-28T00:05:31;97476.03;;;6.35;100.00
967;BME280;56108;48.730;9.304;2024-02-28T00:07:39;97481.50;;;6.32;100.00
967;BME280;56108;48.730;9.304;2024-02-28T00:09:47;97476.22;;;6.32;100.00
967;BME280;56108;48.730;9.304;2024-02-28T00:11:58;97479.72;;;6.33;100.00
967;BME280;56108;48.730;9.304;2024-02-28T00:14:07;97479.72;;;6.33;100.00
967;BME280;56108;48.730;9.304;2024-02-28T00:16:15;97477.81;;;6.35;100.00
967;BME280;56108;48.730;9.304;2024-02-28T00:18:23;97483.88;;;6.37;100.00
967;BME280;56108;48.730;9.304;2024-02-28T00:20:31;97490.44;;;6.30;100.00
967;BME280;56108;48.730;9.304;2024-02-28T00:22:39;97490.19;;;6.34;100.00
967;BME280;56108;48.730;9.304;2024-02-28T00:24:49;97490.44;;;6.30;100.00
967;BME280;56108;48.730;9.304;2024-02-28T00:27:00;97486.84;;;6.31;100.00
967;BME280;56108;48.730;9.304;2024-02-28T00:29:08;97487.22;;;6.40;100.00
967;BME280;56108;48.730;9.304;2024-02-28T00:31:17;97489.09;;;6.38;100.00
967;BME280;56108;48.730;9.304;2024-02-28T00:33:26;97491.72;;;6.38;100.00
967;BME280;56108;48.730;9.304;2024-02-28T00:35:34;97492.34;;;6.43;100.00
967;BME280;56108;48.730;9.304;2024-02-28T00:37:46;97492.34;;;6.43;100.00
967;BME280;56108;48.730;9.304;2024-02-28T00:39:54;97489.44;;;6.48;100.00
967;BME280;56108;48.730;9.304;2024-02-28T00:42:05;97495.97;;;6.41;100.00
967;BME280;56108;48.730;9.304;2024-02-28T00:44:14;97495.13;;;6.40;100.00
967;BME280;56108;48.730;9.304;2024-02-28T00:46:22;97489.75;;;6.42;100.00
967;BME280;56108;48.730;9.304;2024-02-28T00:48:30;97482.63;;;6.44;100.00
967;BME280;56108;48.730;9.304;2024-02-28T00:50:38;97486.72;;;6.49;100.00
967;BME280;56108;48.730;9.304;2024-02-28T00:52:46;97487.81;;;6.45;100.00
967;BME280;56108;48.730;9.304;2024-02-28T00:54:51;97492.69;;;6.53;100.00
967;BME280;56108;48.730;9.304;2024-02-28T00:56:59;97483.56;;;6.43;100.00
967;BME280;56108;48.730;9.304;2024-02-28T00:59:10;97485.25;;;6.28;100.00
967;BME280;56108;48.730;9.304;2024-02-28T01:01:18;97476.03;;;6.35;100.00
967;BME280;56108;48.730;9.304;2024-02-28T01:03:26;97481.91;;;6.24;100.00
967;BME280;56108;48.730;9.304;2024-02-28T01:05:35;97480.56;;;6.33;100.00
967;BME280;56108;48.730;9.304;2024-02-28T01:07:40;97488.63;;;6.30;100.00
967;BME280;56108;48.730;9.304;2024-02-28T01:09:48;97484.44;;;6.26;100.00
967;BME280;56108;48.730;9.304;2024-02-28T01:11:57;97488.63;;;6.30;100.00
967;BME280;56108;48.730;9.304;2024-02-28T01:14:05;97487.22;;;6.40;100.00
967;BME280;56108;48.730;9.304;2024-02-28T01:16:15;97487.81;;;6.45;100.00
967;BME280;56108;48.730;9.304;2024-02-28T01:18:24;97489.59;;;6.45;100.00
967;BME280;56108;48.730;9.304;2024-02-28T01:20:36;97491.16;;;6.49;100.00
967;BME280;56108;48.730;9.304;2024-02-28T01:22:44;97486.09;;;6.44;100.00
967;BME280;56108;48.730;9.304;2024-02-28T01:24:53;97491.25;;;6.47;100.00
967;BME280;56108;48.730;9.304;2024-02-28T01:27:01;97489.84;;;6.40;100.00
967;BME280;56108;48.730;9.304;2024-02-28T01:29:06;97499.66;;;6.38;100.00
967;BME280;56108;48.730;9.304;2024-02-28T01:31:17;97492.25;;;6.45;100.00
967;BME280;56108;48.730;9.304;2024-02-28T01:33:25;97496.16;;;6.38;100.00
967;BME280;56108;48.730;9.304;2024-02-28T01:35:33;97501.59;;;6.35;100.00
967;BME280;56108;48.730;9.304;2024-02-28T01:37:41;97491.78;;;6.37;100.00
967;BME280;56108;48.730;9.304;2024-02-28T01:39:49;97498.13;;;6.34;100.00
967;BME280;56108;48.730;9.304;2024-02-28T01:41:57;97503.66;;;6.45;100.00
967;BME280;56108;48.730;9.304;2024-02-28T01:44:06;97497.03;;;6.38;100.00
967;BME280;56108;48.730;9.304;2024-02-28T01:46:23;97501.97;;;6.44;100.00
967;BME280;56108;48.730;9.304;2024-02-28T01:48:32;97505.94;;;6.36;100.00
967;BME280;56108;48.730;9.304;2024-02-28T01:50:41;97505.09;;;6.35;100.00
967;BME280;56108;48.730;9.304;2024-02-28T01:52:49;97504.25;;;6.35;100.00
967;BME280;56108;48.730;9.304;2024-02-28T01:57:06;97500.34;;;6.42;100.00
967;BME280;56108;48.730;9.304;2024-02-28T01:59:16;97511.09;;;6.39;100.00
967;BME280;56108;48.730;9.304;2024-02-28T02:01:29;97501.47;;;6.38;100.00
967;BME280;56108;48.730;9.304;2024-02-28T02:03:37;97510.47;;;6.34;100.00
967;BME280;56108;48.730;9.304;2024-02-28T02:05:43;97516.47;;;6.37;100.00
967;BME280;56108;48.730;9.304;2024-02-28T02:07:51;97518.31;;;6.35;100.00
967;BME280;56108;48.730;9.304;2024-02-28T02:10:00;97526.94;;;6.39;100.00
967;BME280;56108;48.730;9.304;2024-02-28T02:12:13;97528.03;;;6.35;100.00
967;BME280;56108;48.730;9.304;2024-02-28T02:14:21;97526.16;;;6.37;100.00
967;BME280;56108;48.730;9.304;2024-02-28T02:16:32;97527.44;;;6.30;100.00
967;BME280;56108;48.730;9.304;2024-02-28T02:18:40;97532.22;;;6.39;100.00
967;BME280;56108;48.730;9.304;2024-02-28T02:20:50;97530.16;;;6.28;100.00
967;BME280;56108;48.730;9.304;2024-02-28T02:23:03;97529.38;;;6.26;100.00
967;BME280;56108;48.730;9.304;2024-02-28T02:25:12;97537.25;;;6.27;100.00
967;BME280;56108;48.730;9.304;2024-02-28T02:27:18;97528.47;;;6.27;100.00
967;BME280;56108;48.730;9.304;2024-02-28T02:29:26;97539.09;;;6.25;100.00
967;BME280;56108;48.730;9.304;2024-02-28T02:31:33;97534.22;;;6.18;100.00
967;BME280;56108;48.730;9.304;2024-02-28T02:33:42;97543.47;;;6.09;100.00
967;BME280;56108;48.730;9.304;2024-02-28T02:35:51;97546.25;;;6.23;100.00
967;BME280;56108;48.730;9.304;2024-02-28T02:38:03;97553.44;;;6.21;100.00
967;BME280;56108;48.730;9.304;2024-02-28T02:40:12;97555.50;;;6.15;100.00
967;BME280;56108;48.730;9.304;2024-02-28T02:42:20;97553.81;;;6.14;100.00
967;BME280;56108;48.730;9.304;2024-02-28T02:44:28;97563.06;;;6.22;100.00
967;BME280;56108;48.730;9.304;2024-02-28T02:46:33;97563.28;;;6.18;100.00
967;BME280;56108;48.730;9.304;2024-02-28T02:48:41;97563.38;;;6.16;100.00
967;BME280;56108;48.730;9.304;2024-02-28T02:50:50;97564.91;;;6.20;100.00
967;BME280;56108;48.730;9.304;2024-02-28T02:52:58;97567.03;;;6.14;100.00
967;BME280;56108;48.730;9.304;2024-02-28T02:55:07;97567.97;;;6.13;100.00
967;BME280;56108;48.730;9.304;2024-02-28T02:57:16;97568.56;;;6.18;100.00
967;BME280;56108;48.730;9.304;2024-02-28T02:59:24;97571.75;;;6.24;100.00
967;BME280;56108;48.730;9.304;2024-02-28T03:01:32;97572.06;;;6.18;100.00
967;BME280;56108;48.730;9.304;2024-02-28T03:03:41;97572.06;;;6.18;100.00
967;BME280;56108;48.730;9.304;2024-02-28T03:05:49;97584.19;;;6.22;100.00
967;BME280;56108;48.730;9.304;2024-02-28T03:07:57;97579.91;;;6.20;100.00
967;BME280;56108;48.730;9.304;2024-02-28T03:10:09;97587.00;;;6.19;100.00
967;BME280;56108;48.730;9.304;2024-02-28T03:12:17;97586.59;;;6.27;100.00
967;BME280;56108;48.730;9.304;2024-02-28T03:14:26;97592.59;;;6.13;100.00
967;BME280;56108;48.730;9.304;2024-02-28T03:16:34;97602.63;;;6.07;100.00
967;BME280;56108;48.730;9.304;2024-02-28T03:18:43;97607.13;;;6.05;100.00
967;BME280;56108;48.730;9.304;2024-02-28T03:20:51;97611.41;;;6.07;100.00
967;BME280;56108;48.730;9.304;2024-02-28T03:22:59;97615.53;;;6.13;100.00
967;BME280;56108;48.730;9.304;2024-02-28T03:25:10;97612.03;;;6.12;100.00
967;BME280;56108;48.730;9.304;2024-02-28T03:27:19;97610.25;;;6.13;100.00
967;BME280;56108;48.730;9.304;2024-02-28T03:29:27;97620.09;;;6.09;100.00
967;BME280;56108;48.730;9.304;2024-02-28T03:31:35;97621.81;;;6.10;100.00
967;BME280;56108;48.730;9.304;2024-02-28T03:33:44;97634.09;;;6.11;100.00
967;BME280;56108;48.730;9.304;2024-02-28T03:35:52;97636.13;;;6.06;100.00
967;BME280;56108;48.730;9.304;2024-02-28T03:38:00;97639.53;;;6.08;100.00
967;BME280;56108;48.730;9.304;2024-02-28T03:40:12;97639.22;;;6.14;100.00
967;BME280;56108;48.730;9.304;2024-02-28T03:42:20;97639.44;;;6.10;100.00
967;BME280;56108;48.730;9.304;2024-02-28T03:44:28;97642.50;;;6.02;100.00
967;BME280;56108;48.730;9.304;2024-02-28T03:46:36;97642.50;;;6.02;100.00
967;BME280;56108;48.730;9.304;2024-02-28T03:48:44;97641.41;;;6.06;100.00
967;BME280;56108;48.730;9.304;2024-02-28T03:50:52;97640.47;;;6.07;100.00
967;BME280;56108;48.730;9.304;2024-02-28T03:53:00;97645.13;;;6.02;100.00
967;BME280;56108;48.730;9.304;2024-02-28T03:55:11;97641.16;;;6.11;100.00
967;BME280;56108;48.730;9.304;2024-02-28T03:57:19;97644.66;;;6.11;100.00
967;BME280;56108;48.730;9.304;2024-02-28T03:59:27;97650.63;;;6.15;100.00
967;BME280;56108;48.730;9.304;2024-02-28T04:01:35;97642.66;;;6.16;100.00
967;BME280;56108;48.730;9.304;2024-02-28T04:03:44;97647.31;;;6.11;100.00
967;BME280;56108;48.730;9.304;2024-02-28T04:05:52;97647.06;;;6.16;100.00
967;BME280;56108;48.730;9.304;2024-02-28T04:08:00;97649.06;;;6.11;100.00
967;BME280;56108;48.730;9.304;2024-02-28T04:10:11;97647.38;;;6.10;100.00
967;BME280;56108;48.730;9.304;2024-02-28T04:12:16;97647.69;;;6.04;100.00
967;BME280;56108;48.730;9.304;2024-02-28T04:14:24;97642.88;;;6.12;100.00
967;BME280;56108;48.730;9.304;2024-02-28T04:16:32;97644.09;;;6.05;100.00
967;BME280;56108;48.730;9.304;2024-02-28T04:18:42;97642.72;;;5.97;100.00
967;BME280;56108;48.730;9.304;2024-02-28T04:20:51;97641.63;;;6.01;100.00
967;BME280;56108;48.730;9.304;2024-02-28T04:22:59;97645.59;;;5.93;100.00
967;BME280;56108;48.730;9.304;2024-02-28T04:25:11;97647.06;;;5.98;100.00
967;BME280;56108;48.730;9.304;2024-02-28T04:27:19;97639.00;;;6.01;100.00
967;BME280;56108;48.730;9.304;2024-02-28T04:29:27;97646.84;;;6.03;100.00
967;BME280;56108;48.730;9.304;2024-02-28T04:31:32;97643.34;;;6.03;100.00
967;BME280;56108;48.730;9.304;2024-02-28T04:33:40;97639.44;;;5.92;100.00
967;BME280;56108;48.730;9.304;2024-02-28T04:35:48;97633.13;;;5.95;100.00
967;BME280;56108;48.730;9.304;2024-02-28T04:37:56;97641.56;;;6.03;100.00
967;BME280;56108;48.730;9.304;2024-02-28T04:40:06;97650.72;;;5.96;100.00
967;BME280;56108;48.730;9.304;2024-02-28T04:42:15;97651.81;;;5.92;100.00
967;BME280;56108;48.730;9.304;2024-02-28T04:44:23;97653.78;;;5.87;100.00
967;BME280;56108;48.730;9.304;2024-02-28T04:46:32;97644.16;;;5.86;100.00
967;BME280;56108;48.730;9.304;2024-02-28T04:48:40;97647.47;;;5.89;100.00
967;BME280;56108;48.730;9.304;2024-02-28T04:50:46;97642.72;;;5.79;100.00
967;BME280;56108;48.730;9.304;2024-02-28T04:52:54;97640.41;;;5.72;100.00
967;BME280;56108;48.730;9.304;2024-02-28T04:55:02;97647.16;;;5.78;100.00
967;BME280;56108;48.730;9.304;2024-02-28T04:57:10;97640.31;;;5.74;100.00
967;BME280;56108;48.730;9.304;2024-02-28T04:59:21;97647.25;;;5.76;100.00
967;BME280;56108;48.730;9.304;2024-02-28T05:01:29;97645.53;;;5.75;100.00
967;BME280;56108;48.730;9.304;2024-02-28T05:03:37;97650.97;;;5.72;100.00
967;BME280;56108;48.730;9.304;2024-02-28T05:05:46;97648.31;;;5.72;100.00
967;BME280;56108;48.730;9.304;2024-02-28T05:07:53;97651.41;;;5.63;100.00
967;BME280;56108;48.730;9.304;2024-02-28T05:10:02;97651.34;;;5.65;100.00
967;BME280;56108;48.730;9.304;2024-02-28T05:12:10;97654.69;;;5.68;100.00
967;BME280;56108;48.730;9.304;2024-02-28T05:14:22;97665.53;;;5.62;100.00
967;BME280;56108;48.730;9.304;2024-02-28T05:16:32;97662.69;;;5.67;100.00
967;BME280;56108;48.730;9.304;2024-02-28T05:18:40;97668.97;;;5.64;100.00
967;BME280;56108;48.730;9.304;2024-02-28T05:20:48;97674.19;;;5.66;100.00
967;BME280;56108;48.730;9.304;2024-02-28T05:22:57;97670.25;;;5.74;100.00
967;BME280;56108;48.730;9.304;2024-02-28T05:25:05;97668.38;;;5.76;100.00
967;BME280;56108;48.730;9.304;2024-02-28T05:27:14;97677.66;;;5.66;100.00
967;BME280;56108;48.730;9.304;2024-02-28T05:29:24;97677.59;;;5.68;100.00
967;BME280;56108;48.730;9.304;2024-02-28T05:31:33;97674.47;;;5.60;100.00
967;BME280;56108;48.730;9.304;2024-02-28T05:33:40;97684.75;;;5.66;100.00
967;BME280;56108;48.730;9.304;2024-02-28T05:35:48;97674.31;;;5.63;100.00
967;BME280;56108;48.730;9.304;2024-02-28T05:37:56;97676.06;;;5.64;100.00
967;BME280;56108;48.730;9.304;2024-02-28T05:40:08;97680.44;;;5.63;100.00
967;BME280;56108;48.730;9.304;2024-02-28T05:42:17;97683.81;;;5.67;100.00
967;BME280;56108;48.730;9.304;2024-02-28T05:44:29;97688.38;;;5.63;100.00
967;BME280;56108;48.730;9.304;2024-02-28T05:46:39;97682.22;;;5.63;100.00
967;BME280;56108;48.730;9.304;2024-02-28T05:48:48;97689.09;;;5.67;100.00
967;BME280;56108;48.730;9.304;2024-02-28T05:50:53;97695.53;;;5.61;100.00
967;BME280;56108;48.730;9.304;2024-02-28T05:53:01;97698.88;;;5.65;100.00
967;BME280;56108;48.730;9.304;2024-02-28T05:55:09;97702.59;;;5.61;100.00
967;BME280;56108;48.730;9.304;2024-02-28T05:57:17;97704.09;;;5.47;100.00
967;BME280;56108;48.730;9.304;2024-02-28T05:59:25;97701.81;;;5.40;100.00
967;BME280;56108;48.730;9.304;2024-02-28T06:01:36;97701.81;;;5.40;100.00
967;BME280;56108;48.730;9.304;2024-02-28T06:03:45;97713.66;;;5.50;100.00
967;BME280;56108;48.730;9.304;2024-02-28T06:05:51;97710.47;;;5.43;100.00
967;BME280;56108;48.730;9.304;2024-02-28T06:08:00;97716.59;;;5.44;100.00
967;BME280;56108;48.730;9.304;2024-02-28T06:10:08;97715.88;;;5.40;100.00
967;BME280;56108;48.730;9.304;2024-02-28T06:12:16;97719.44;;;5.39;100.00
967;BME280;56108;48.730;9.304;2024-02-28T06:14:24;97720.06;;;5.44;100.00
967;BME280;56108;48.730;9.304;2024-02-28T06:16:30;97727.19;;;5.42;100.00
967;BME280;56108;48.730;9.304;2024-02-28T06:18:40;97733.50;;;5.40;100.00
967;BME280;56108;48.730;9.304;2024-02-28T06:20:49;97723.13;;;5.35;100.00
967;BME280;56108;48.730;9.304;2024-02-28T06:22:57;97727.84;;;5.29;100.00
967;BME280;56108;48.730;9.304;2024-02-28T06:25:14;97733.06;;;5.30;100.00
967;BME280;56108;48.730;9.304;2024-02-28T06:27:24;97744.25;;;5.35;100.00
967;BME280;56108;48.730;9.304;2024-02-28T06:29:35;97740.75;;;5.35;100.00
967;BME280;56108;48.730;9.304;2024-02-28T06:31:43;97743.03;;;5.42;100.00
967;BME280;56108;48.730;9.304;2024-02-28T06:33:54;97745.75;;;5.41;100.00
967;BME280;56108;48.730;9.304;2024-02-28T06:36:02;97751.09;;;5.39;100.00
967;BME280;56108;48.730;9.304;2024-02-28T06:38:10;97749.19;;;5.43;100.00
967;BME280;56108;48.730;9.304;2024-02-28T06:40:19;97757.72;;;5.48;100.00
967;BME280;56108;48.730;9.304;2024-02-28T06:42:28;97758.72;;;5.45;100.00
967;BME280;56108;48.730;9.304;2024-02-28T06:44:36;97768.16;;;5.51;100.00
967;BME280;56108;48.730;9.304;2024-02-28T06:46:44;97772.22;;;5.58;100.00
967;BME280;56108;48.730;9.304;2024-02-28T06:48:55;97777.22;;;5.45;100.00
967;BME280;56108;48.730;9.304;2024-02-28T06:51:03;97779.56;;;5.52;100.00
967;BME280;56108;48.730;9.304;2024-02-28T06:53:09;97776.00;;;5.53;100.00
967;BME280;56108;48.730;9.304;2024-02-28T06:55:17;97781.47;;;5.48;100.00
967;BME280;56108;48.730;9.304;2024-02-28T06:57:26;97788.84;;;5.60;100.00
967;BME280;56108;48.730;9.304;2024-02-28T06:59:36;97783.22;;;5.49;100.00
967;BME280;56108;48.730;9.304;2024-02-28T07:01:44;97778.34;;;5.40;100.00
967;BME280;56108;48.730;9.304;2024-02-28T07:03:55;97783.44;;;5.44;100.00
967;BME280;56108;48.730;9.304;2024-02-28T07:06:04;97797.41;;;5.46;100.00
967;BME280;56108;48.730;9.304;2024-02-28T07:08:13;97795.06;;;5.59;100.00
967;BME280;56108;48.730;9.304;2024-02-28T07:10:21;97796.47;;;5.66;100.00
967;BME280;56108;48.730;9.304;2024-02-28T07:12:30;97806.47;;;5.60;100.00
967;BME280;56108;48.730;9.304;2024-02-28T07:14:39;97797.63;;;5.61;100.00
967;BME280;56108;48.730;9.304;2024-02-28T07:16:47;97805.97;;;5.70;100.00
967;BME280;56108;48.730;9.304;2024-02-28T07:19:00;97804.47;;;5.84;100.00
967;BME280;56108;48.730;9.304;2024-02-28T07:21:08;97804.91;;;5.93;100.00
967;BME280;56108;48.730;9.304;2024-02-28T07:23:13;97808.94;;;6.19;100.00
967;BME280;56108;48.730;9.304;2024-02-28T07:25:21;97823.09;;;6.18;100.00
967;BME280;56108;48.730;9.304;2024-02-28T07:27:29;97821.88;;;6.25;100.00
967;BME280;56108;48.730;9.304;2024-02-28T07:29:36;97835.06;;;6.25;100.00
967;BME280;56108;48.730;9.304;2024-02-28T07:31:44;97839.38;;;6.28;100.00
967;BME280;56108;48.730;9.304;2024-02-28T07:33:50;97836.56;;;6.31;100.00
967;BME280;56108;48.730;9.304;2024-02-28T07:36:01;97842.47;;;6.36;100.00
967;BME280;56108;48.730;9.304;2024-02-28T07:38:09;97842.69;;;6.32;100.00
967;BME280;56108;48.730;9.304;2024-02-28T07:40:17;97846.16;;;6.34;100.00
967;BME280;56108;48.730;9.304;2024-02-28T07:42:26;97849.84;;;6.30;100.00
967;BME280;56108;48.730;9.304;2024-02-28T07:44:34;97854.19;;;6.49;100.00
967;BME280;56108;48.730;9.304;2024-02-28T07:46:46;97856.59;;;6.54;100.00
967;BME280;56108;48.730;9.304;2024-02-28T07:48:56;97851.00;;;6.60;100.00
967;BME280;56108;48.730;9.304;2024-02-28T07:51:07;97855.81;;;6.52;100.00
967;BME280;56108;48.730;9.304;2024-02-28T07:53:16;97860.81;;;6.58;100.00
967;BME280;56108;48.730;9.304;2024-02-28T07:55:25;97867.63;;;6.45;100.00
967;BME280;56108;48.730;9.304;2024-02-28T07:57:33;97868.47;;;6.45;100.00
967;BME280;56108;48.730;9.304;2024-02-28T07:59:41;97874.31;;;6.52;100.00
967;BME280;56108;48.730;9.304;2024-02-28T08:01:49;97876.81;;;6.55;100.00
967;BME280;56108;48.730;9.304;2024-02-28T08:03:58;97871.66;;;6.52;100.00
967;BME280;56108;48.730;9.304;2024-02-28T08:06:10;97872.78;;;6.48;100.00
967;BME280;56108;48.730;9.304;2024-02-28T08:08:18;97880.22;;;6.40;100.00
967;BME280;56108;48.730;9.304;2024-02-28T08:10:26;97874.91;;;6.40;100.00
967;BME280;56108;48.730;9.304;2024-02-28T08:12:34;97878.69;;;6.17;100.00
967;BME280;56108;48.730;9.304;2024-02-28T08:14:42;97880.09;;;6.24;100.00
967;BME280;56108;48.730;9.304;2024-02-28T08:16:48;97887.06;;;6.25;100.00
967;BME280;56108;48.730;9.304;2024-02-28T08:18:56;97882.34;;;6.32;100.00
967;BME280;56108;48.730;9.304;2024-02-28T08:21:05;97882.72;;;6.24;100.00
967;BME280;56108;48.730;9.304;2024-02-28T08:23:16;97889.38;;;6.14;100.00
967;BME280;56108;48.730;9.304;2024-02-28T08:25:24;97880.00;;;6.25;100.00
967;BME280;56108;48.730;9.304;2024-02-28T08:27:32;97885.41;;;6.41;100.00
967;BME280;56108;48.730;9.304;2024-02-28T08:29:41;97882.94;;;6.38;100.00
967;BME280;56108;48.730;9.304;2024-02-28T08:31:51;97884.84;;;6.35;100.00
967;BME280;56108;48.730;9.304;2024-02-28T08:33:59;97883.56;;;6.43;100.00
967;BME280;56108;48.730;9.304;2024-02-28T08:36:09;97890.59;;;6.62;100.00
967;BME280;56108;48.730;9.304;2024-02-28T08:38:20;97888.84;;;6.43;100.00
967;BME280;56108;48.730;9.304;2024-02-28T08:40:28;97887.63;;;6.50;100.00
967;BME280;56108;48.730;9.304;2024-02-28T08:42:37;97889.75;;;6.61;100.00
967;BME280;56108;48.730;9.304;2024-02-28T08:44:46;97893.75;;;6.51;100.00
967;BME280;56108;48.730;9.304;2024-02-28T08:46:55;97897.66;;;6.61;100.00
967;BME280;56108;48.730;9.304;2024-02-28T08:49:03;97899.84;;;6.53;100.00
967;BME280;56108;48.730;9.304;2024-02-28T08:51:14;97905.03;;;6.73;100.00
967;BME280;56108;48.730;9.304;2024-02-28T08:53:25;97908.53;;;6.91;100.00
967;BME280;56108;48.730;9.304;2024-02-28T08:55:33;97913.69;;;6.94;100.00
967;BME280;56108;48.730;9.304;2024-02-28T08:57:38;97915.53;;;6.92;100.00
967;BME280;56108;48.730;9.304;2024-02-28T08:59:46;97906.75;;;6.92;100.00
967;BME280;56108;48.730;9.304;2024-02-28T09:01:58;97910.25;;;6.92;100.00
967;BME280;56108;48.730;9.304;2024-02-28T09:04:07;97912.22;;;7.06;100.00
967;BME280;56108;48.730;9.304;2024-02-28T09:06:15;97907.91;;;7.03;100.00
967;BME280;56108;48.730;9.304;2024-02-28T09:08:26;97905.34;;;6.85;100.00
967;BME280;56108;48.730;9.304;2024-02-28T09:10:35;97910.00;;;6.79;100.00
967;BME280;56108;48.730;9.304;2024-02-28T09:12:43;97909.47;;;7.07;100.00
967;BME280;56108;48.730;9.304;2024-02-28T09:14:51;97907.38;;;6.79;100.00
967;BME280;56108;48.730;9.304;2024-02-28T09:17:02;97908.47;;;6.93;100.00
967;BME280;56108;48.730;9.304;2024-02-28T09:19:10;97916.47;;;6.91;100.00
967;BME280;56108;48.730;9.304;2024-02-28T09:21:19;97909.63;;;6.87;100.00
967;BME280;56108;48.730;9.304;2024-02-28T09:23:30;97913.75;;;6.93;100.00
967;BME280;56108;48.730;9.304;2024-02-28T09:25:38;97917.88;;;6.98;100.00
967;BME280;56108;48.730;9.304;2024-02-28T09:27:46;97914.78;;;6.90;100.00
967;BME280;56108;48.730;9.304;2024-02-28T09:29:54;97921.06;;;6.88;100.00
967;BME280;56108;48.730;9.304;2024-02-28T09:32:04;97921.38;;;6.82;100.00
967;BME280;56108;48.730;9.304;2024-02-28T09:34:12;97919.75;;;6.79;100.00
967;BME280;56108;48.730;9.304;2024-02-28T09:36:20;97918.84;;;6.78;100.00
967;BME280;56108;48.730;9.304;2024-02-28T09:38:31;97914.47;;;6.96;100.00
967;BME280;56108;48.730;9.304;2024-02-28T09:40:40;97923.16;;;6.98;100.00
967;BME280;56108;48.730;9.304;2024-02-28T09:42:52;97929.94;;;7.04;100.00
967;BME280;56108;48.730;9.304;2024-02-28T09:45:04;97934.78;;;6.96;100.00
967;BME280;56108;48.730;9.304;2024-02-28T09:47:10;97930.44;;;7.12;100.00
967;BME280;56108;48.730;9.304;2024-02-28T09:49:19;97937.44;;;7.13;100.00
967;BME280;56108;48.730;9.304;2024-02-28T09:51:28;97946.53;;;7.07;100.00
967;BME280;56108;48.730;9.304;2024-02-28T09:53:39;97938.91;;;7.19;100.00
967;BME280;56108;48.730;9.304;2024-02-28T09:55:47;97943.22;;;7.21;100.00
967;BME280;56108;48.730;9.304;2024-02-28T09:57:56;97944.22;;;7.36;100.00
967;BME280;56108;48.730;9.304;2024-02-28T10:00:07;97949.25;;;7.41;100.00
967;BME280;56108;48.730;9.304;2024-02-28T10:02:19;97948.78;;;7.50;100.00
967;BME280;56108;48.730;9.304;2024-02-28T10:04:29;97951.00;;;7.42;100.00
967;BME280;56108;48.730;9.304;2024-02-28T10:06:40;97946.16;;;7.50;100.00
967;BME280;56108;48.730;9.304;2024-02-28T10:08:51;97943.09;;;7.40;100.00
967;BME280;56108;48.730;9.304;2024-02-28T10:10:59;97947.19;;;7.47;100.00
967;BME280;56108;48.730;9.304;2024-02-28T10:13:07;97941.72;;;7.68;100.00
967;BME280;56108;48.730;9.304;2024-02-28T10:15:15;97954.47;;;7.59;100.00
967;BME280;56108;48.730;9.304;2024-02-28T10:17:23;97954.41;;;7.44;100.00
967;BME280;56108;48.730;9.304;2024-02-28T10:19:34;97947.31;;;7.44;100.00
967;BME280;56108;48.730;9.304;2024-02-28T10:21:42;97952.31;;;7.68;100.00
967;BME280;56108;48.730;9.304;2024-02-28T10:23:52;97954.94;;;7.68;100.00
967;BME280;56108;48.730;9.304;2024-02-28T10:26:01;97956.66;;;7.69;100.00
967;BME280;56108;48.730;9.304;2024-02-28T10:28:09;97959.94;;;7.74;100.00
967;BME280;56108;48.730;9.304;2024-02-28T10:30:19;97959.50;;;7.81;100.00
967;BME280;56108;48.730;9.304;2024-02-28T10:32:27;97964.50;;;7.70;100.00
967;BME280;56108;48.730;9.304;2024-02-28T10:34:34;97970.44;;;7.41;100.00
967;BME280;56108;48.730;9.304;2024-02-28T10:36:43;97959.09;;;7.39;100.00
967;BME280;56108;48.730;9.304;2024-02-28T10:38:55;97964.69;;;7.50;100.00
967;BME280;56108;48.730;9.304;2024-02-28T10:41:05;97974.91;;;7.57;100.00
967;BME280;56108;48.730;9.304;2024-02-28T10:43:17;97978.28;;;7.25;100.00
967;BME280;56108;48.730;9.304;2024-02-28T10:45:27;97983.44;;;7.28;100.00
967;BME280;56108;48.730;9.304;2024-02-28T10:47:57;97997.22;;;7.17;100.00
967;BME280;56108;48.730;9.304;2024-02-28T10:50:06;97996.88;;;7.42;100.00
967;BME280;56108;48.730;9.304;2024-02-28T10:52:15;97996.44;;;7.84;100.00
967;BME280;56108;48.730;9.304;2024-02-28T10:54:29;98004.03;;;7.75;100.00
967;BME280;56108;48.730;9.304;2024-02-28T10:56:37;97998.94;;;7.88;100.00
967;BME280;56108;48.730;9.304;2024-02-28T10:58:51;97997.13;;;8.05;100.00
967;BME280;56108;48.730;9.304;2024-02-28T11:00:59;97988.94;;;8.10;100.00
967;BME280;56108;48.730;9.304;2024-02-28T11:03:08;97990.63;;;8.11;100.00
967;BME280;56108;48.730;9.304;2024-02-28T11:05:17;97996.69;;;8.30;100.00
967;BME280;56108;48.730;9.304;2024-02-28T11:07:24;97993.94;;;8.32;100.00
967;BME280;56108;48.730;9.304;2024-02-28T11:09:34;97994.63;;;8.35;100.00
967;BME280;56108;48.730;9.304;2024-02-28T11:11:43;97995.53;;;8.52;100.00
967;BME280;56108;48.730;9.304;2024-02-28T11:13:55;97988.94;;;8.43;100.00
967;BME280;56108;48.730;9.304;2024-02-28T11:16:08;97997.84;;;8.42;100.00
967;BME280;56108;48.730;9.304;2024-02-28T11:18:14;97987.94;;;8.46;100.00
967;BME280;56108;48.730;9.304;2024-02-28T11:20:32;97994.75;;;8.50;100.00
967;BME280;56108;48.730;9.304;2024-02-28T11:22:40;98000.00;;;8.67;100.00
967;BME280;56108;48.730;9.304;2024-02-28T11:24:53;98003.75;;;8.63;100.00
967;BME280;56108;48.730;9.304;2024-02-28T11:27:02;98001.81;;;8.67;100.00
967;BME280;56108;48.730;9.304;2024-02-28T11:29:11;98011.84;;;8.44;100.00
967;BME280;56108;48.730;9.304;2024-02-28T11:31:18;98007.84;;;8.37;100.00
967;BME280;56108;48.730;9.304;2024-02-28T11:33:26;97999.09;;;8.51;100.00
967;BME280;56108;48.730;9.304;2024-02-28T11:35:34;98004.94;;;8.42;100.00
967;BME280;56108;48.730;9.304;2024-02-28T11:37:40;98007.44;;;8.27;100.00
967;BME280;56108;48.730;9.304;2024-02-28T11:39:50;98008.78;;;8.36;100.00
967;BME280;56108;48.730;9.304;2024-02-28T11:42:09;98005.13;;;8.21;100.00
967;BME280;56108;48.730;9.304;2024-02-28T11:44:19;98004.25;;;8.21;100.00